createdAt,value
2023-01-09T19:44:40.049Z,6.18
2023-01-09T19:47:07.891Z,6.38
2023-01-09T19:49:37.937Z,6.84
2023-01-09T19:52:08.775Z,7.13
2023-01-09T19:54:38.016Z,6.92
2023-01-09T19:57:07.979Z,7.33
2023-01-09T19:59:39.916Z,7.09
2023-01-09T20:02:10.587Z,7.12
2023-01-09T20:04:44.231Z,6.89
2023-01-09T20:07:12.099Z,7.19
2023-01-09T20:09:45.519Z,7.03
2023-01-09T20:12:13.606Z,7.16
2023-01-09T20:14:41.613Z,7.02
2023-01-09T20:17:12.841Z,7.29
2023-01-09T20:19:40.746Z,7.36
2023-01-09T20:22:11.303Z,6.96
2023-01-09T20:24:39.583Z,7.29
2023-01-09T20:27:07.680Z,7.04
2023-01-09T20:29:38.046Z,6.97
2023-01-09T20:32:09.910Z,7.60
2023-01-09T20:34:44.264Z,7.40
2023-01-09T20:37:12.365Z,7.58
2023-01-09T20:39:45.459Z,7.45
2023-01-09T20:42:16.441Z,7.19
2023-01-09T20:44:45.856Z,7.06
2023-01-09T20:47:13.953Z,6.93
2023-01-09T20:49:43.483Z,7.10
2023-01-09T20:52:11.405Z,7.23
2023-01-09T20:54:44.113Z,7.30
2023-01-09T20:57:14.524Z,7.21
2023-01-09T20:59:45.258Z,7.62
2023-01-09T21:02:16.473Z,7.73
2023-01-09T21:04:45.961Z,8.04
2023-01-09T21:07:16.083Z,7.86
2023-01-09T21:09:44.470Z,8.10
2023-01-09T21:12:27.869Z,8.12
2023-01-09T21:15:02.029Z,8.02
2023-01-09T21:17:32.695Z,8.66
2023-01-09T21:20:02.165Z,7.35
2023-01-09T21:22:37.036Z,7.80
2023-01-09T21:25:06.034Z,8.42
2023-01-09T21:27:39.695Z,8.40
2023-01-09T21:30:09.550Z,8.84
2023-01-09T21:32:39.577Z,8.91
2023-01-09T21:35:10.431Z,9.48
2023-01-09T21:37:40.126Z,9.05
2023-01-09T21:40:12.932Z,9.45
2023-01-09T21:43:10.265Z,9.29
2023-01-09T21:45:56.664Z,9.63
2023-01-09T21:48:27.444Z,9.46
2023-01-09T21:51:07.032Z,9.56
2023-01-09T21:53:36.997Z,9.29
2023-01-09T21:56:05.346Z,9.47
2023-01-09T21:58:40.514Z,9.54
2023-01-09T22:01:08.346Z,9.52
2023-01-09T22:03:43.517Z,9.42
2023-01-09T22:06:13.067Z,9.24
2023-01-09T22:08:43.870Z,9.17
2023-01-09T22:11:14.768Z,9.00
2023-01-09T22:13:48.101Z,8.92
2023-01-09T22:16:20.197Z,8.61
2023-01-09T22:18:50.107Z,8.51
2023-01-09T22:21:19.696Z,8.75
2023-01-09T22:23:47.494Z,8.58
2023-01-09T22:26:16.906Z,8.42
2023-01-09T22:28:47.553Z,8.21
2023-01-09T22:31:18.007Z,8.13
2023-01-09T22:34:02.506Z,7.88
2023-01-09T22:36:42.307Z,8.16
2023-01-09T22:39:12.945Z,8.18
2023-01-09T22:41:40.942Z,8.16
2023-01-09T22:44:11.122Z,8.53
2023-01-09T22:46:39.222Z,8.67
2023-01-09T22:49:14.196Z,7.44
2023-01-09T22:51:45.609Z,8.18
2023-01-09T22:54:15.076Z,7.37
2023-01-09T22:56:44.041Z,7.40
2023-01-09T22:59:12.911Z,7.60
2023-01-09T23:01:40.794Z,7.62
2023-01-09T23:04:16.621Z,7.33
2023-01-09T23:06:45.889Z,7.66
2023-01-09T23:09:20.494Z,7.10
2023-01-09T23:12:13.403Z,7.02
2023-01-09T23:14:41.364Z,7.18
2023-01-09T23:17:13.383Z,7.28
2023-01-09T23:19:41.671Z,7.47
2023-01-09T23:22:11.039Z,7.63
2023-01-09T23:24:39.124Z,7.50
2023-01-09T23:27:07.730Z,7.79
2023-01-09T23:29:39.713Z,7.73
2023-01-09T23:32:09.475Z,7.33
2023-01-09T23:34:37.340Z,7.33
2023-01-09T23:37:09.692Z,7.46
2023-01-09T23:39:42.258Z,6.69
2023-01-09T23:42:37.357Z,7.18
2023-01-09T23:45:06.197Z,7.19
2023-01-09T23:47:34.693Z,7.23
2023-01-09T23:50:07.190Z,7.21
2023-01-09T23:52:34.924Z,7.77
2023-01-09T23:55:10.327Z,7.75
2023-01-09T23:57:39.260Z,7.53
